Time;durP1;ratioP1;P1;durP2;ratioP2;P2;SDS_P1;SDS_P2;PMS_P1;PMS_P2;Temp;Humidity;BMP_temperature;BMP_pressure;BME280_temperature;BME280_humidity;BME280_pressure;Samples;Min_cycle;Max_cycle;Signal;HPM_P1;HPM_P2
2023/02/25 00:02:00;;;;;;;9.73;0.30;;;4.80;99.90;;;;;;5013954;28;20104;-77
2023/02/25 00:04:27;;;;;;;7.95;0.30;;;4.80;99.90;;;;;;5013815;28;20458;-77
2023/02/25 00:06:53;;;;;;;3.80;0.20;;;4.70;99.90;;;;;;5015161;28;20397;-77
2023/02/25 00:09:18;;;;;;;9.05;0.77;;;4.70;99.90;;;;;;5015012;28;20022;-77
2023/02/25 00:11:44;;;;;;;5.53;0.43;;;4.60;99.90;;;;;;5013563;28;20026;-77
2023/02/25 00:14:10;;;;;;;3.95;0.10;;;4.60;99.90;;;;;;5015088;28;20025;-77
2023/02/25 00:16:35;;;;;;;8.82;0.10;;;4.60;99.90;;;;;;5014939;28;20389;-77
2023/02/25 00:19:02;;;;;;;8.68;0.20;;;4.60;99.90;;;;;;5015464;28;20026;-77
2023/02/25 00:21:29;;;;;;;4.93;0.08;;;4.60;99.90;;;;;;5014752;28;20057;-77
2023/02/25 00:23:55;;;;;;;11.57;0.65;;;4.70;99.90;;;;;;5014737;28;20093;-77
2023/02/25 00:26:21;;;;;;;5.05;0.70;;;4.70;99.90;;;;;;5013444;28;20444;-77
2023/02/25 00:28:47;;;;;;;8.93;0.63;;;4.70;99.90;;;;;;5014679;28;20049;-77
2023/02/25 00:31:16;;;;;;;5.05;0.03;;;4.70;99.90;;;;;;5014742;28;20453;-77
2023/02/25 00:33:42;;;;;;;5.93;0.28;;;4.60;99.90;;;;;;5013312;28;20022;-77
2023/02/25 00:36:11;;;;;;;3.42;0.05;;;4.70;99.90;;;;;;5014479;28;20014;-77
2023/02/25 00:38:36;;;;;;;;;;;4.60;99.90;;;;;;5013589;28;20030;-77
2023/02/25 00:41:10;;;;;;;6.72;0.35;;;4.60;99.90;;;;;;5012916;28;19959;-77
2023/02/25 00:43:38;;;;;;;2.47;0.28;;;4.50;99.90;;;;;;5014447;28;20029;-77
2023/02/25 00:46:03;;;;;;;6.78;0.77;;;4.50;99.90;;;;;;5013006;28;20018;-77
2023/02/25 00:48:29;;;;;;;8.45;0.47;;;4.40;99.90;;;;;;5014109;28;20551;-77
2023/02/25 00:50:55;;;;;;;7.78;0.85;;;4.30;99.90;;;;;;5014195;28;20022;-77
2023/02/25 00:53:20;;;;;;;5.97;0.47;;;4.30;99.90;;;;;;5012990;28;20029;-77
2023/02/25 00:55:46;;;;;;;6.28;0.68;;;4.20;99.90;;;;;;5014032;28;20021;-77
2023/02/25 00:58:11;;;;;;;7.45;0.17;;;4.10;99.90;;;;;;5012763;28;20124;-77
2023/02/25 01:00:37;;;;;;;3.83;0.00;;;4.10;99.90;;;;;;5013204;28;20503;-77
2023/02/25 01:03:02;;;;;;;7.40;0.63;;;4.00;99.90;;;;;;5013995;28;20037;-77
2023/02/25 01:05:28;;;;;;;4.93;0.60;;;3.90;99.90;;;;;;5013942;28;20057;-77
2023/02/25 01:07:54;;;;;;;5.43;0.40;;;4.00;99.90;;;;;;5012839;28;20378;-77
2023/02/25 01:10:19;;;;;;;3.67;0.00;;;4.00;99.90;;;;;;5012559;28;20072;-77
2023/02/25 01:12:45;;;;;;;6.28;0.32;;;3.90;99.90;;;;;;5012547;28;20034;-77
2023/02/25 01:15:12;;;;;;;10.88;0.90;;;4.00;99.90;;;;;;5014152;28;20546;-77
2023/02/25 01:17:37;;;;;;;3.05;0.38;;;4.00;99.90;;;;;;5012699;28;20060;-77
2023/02/25 01:20:09;;;;;;;8.52;0.15;;;3.90;99.90;;;;;;5013789;28;20401;-77
2023/02/25 01:22:40;;;;;;;3.20;0.30;;;3.90;99.90;;;;;;5011898;28;20401;-77
2023/02/25 01:25:07;;;;;;;9.18;1.88;;;3.90;99.90;;;;;;5012539;28;20018;-77
2023/02/25 01:27:33;;;;;;;6.63;1.10;;;3.80;99.90;;;;;;5013658;28;20034;-77
2023/02/25 01:29:58;;;;;;;11.68;0.55;;;3.80;99.90;;;;;;5012470;28;20508;-77
2023/02/25 01:32:24;;;;;;;8.05;1.10;;;3.90;99.90;;;;;;5013739;28;20021;-77
2023/02/25 01:34:49;;;;;;;7.65;0.30;;;3.90;99.90;;;;;;5013600;28;20022;-77
2023/02/25 01:37:15;;;;;;;8.93;0.50;;;3.90;99.90;;;;;;5012327;28;20022;-78
2023/02/25 01:39:41;;;;;;;11.60;0.80;;;3.90;99.90;;;;;;5012320;28;20489;-78
2023/02/25 01:42:13;;;;;;;10.88;0.65;;;3.90;99.90;;;;;;5013388;28;20045;-78
2023/02/25 01:45:16;;;;;;;10.52;1.02;;;4.00;99.90;;;;;;5012297;28;20029;-78
2023/02/25 01:47:47;;;;;;;4.88;0.17;;;4.10;99.90;;;;;;5012283;28;20034;-78
2023/02/25 01:50:13;;;;;;;6.70;0.35;;;4.10;99.90;;;;;;5013587;28;20026;-78
2023/02/25 01:52:40;;;;;;;14.63;1.60;;;4.10;99.90;;;;;;5013403;28;20037;-77
2023/02/25 01:55:08;;;;;;;11.60;1.25;;;4.10;99.90;;;;;;5013345;28;20026;-77
2023/02/25 01:57:33;;;;;;;13.98;1.50;;;4.10;99.90;;;;;;5012086;28;20041;-77
2023/02/25 01:59:59;;;;;;;10.82;0.65;;;4.10;99.90;;;;;;5012106;28;20022;-77
2023/02/25 02:02:27;;;;;;;8.30;0.30;;;4.10;99.90;;;;;;5013273;28;20101;-77
2023/02/25 02:04:53;;;;;;;10.13;0.17;;;4.10;99.90;;;;;;5013408;28;20547;-77
2023/02/25 02:07:23;;;;;;;15.02;1.55;;;4.10;99.90;;;;;;5012024;28;20109;-77
2023/02/25 02:09:55;;;;;;;7.25;0.10;;;4.10;99.90;;;;;;5013356;28;20026;-77
2023/02/25 02:12:24;;;;;;;12.13;0.90;;;4.10;99.90;;;;;;5011986;28;20121;-77
2023/02/25 02:14:51;;;;;;;15.40;0.90;;;4.20;99.90;;;;;;5013498;28;20049;-77
2023/02/25 02:17:26;;;;;;;5.20;0.38;;;4.10;99.90;;;;;;5013266;28;20022;-77
2023/02/25 02:20:21;;;;;;;7.57;0.63;;;4.80;99.90;;;;;;5013317;28;20108;-77
2023/02/25 02:23:08;;;;;;;8.50;0.60;;;4.00;99.90;;;;;;5012021;28;20025;-77
2023/02/25 02:25:50;;;;;;;12.25;0.47;;;4.10;99.90;;;;;;5011906;28;20033;-77
2023/02/25 02:28:54;;;;;;;6.75;0.00;;;4.00;99.90;;;;;;5013612;28;20026;-76
2023/02/25 02:31:42;;;;;;;12.65;0.80;;;4.00;99.90;;;;;;4990680;28;20048;-76
2023/02/25 02:34:16;;;;;;;8.65;0.47;;;3.90;99.90;;;;;;5012790;28;20026;-76
2023/02/25 02:36:58;;;;;;;7.53;0.75;;;3.90;99.90;;;;;;5015369;28;20500;-76
2023/02/25 02:39:26;;;;;;;11.80;0.65;;;3.90;99.90;;;;;;5015482;28;20018;-75
2023/02/25 02:42:36;;;;;;;9.60;0.25;;;3.90;99.90;;;;;;5016443;28;20084;-76
2023/02/25 02:45:22;;;;;;;9.30;0.68;;;3.80;99.90;;;;;;4975517;28;20035;-76
2023/02/25 02:47:57;;;;;;;10.45;0.35;;;3.70;99.90;;;;;;4959261;28;20065;-77
2023/02/25 02:50:34;;;;;;;15.23;0.82;;;3.80;99.90;;;;;;5004395;28;20089;-77
2023/02/25 02:53:06;;;;;;;14.60;0.50;;;3.80;99.90;;;;;;5014952;28;20075;-76
2023/02/25 02:55:46;;;;;;;10.75;0.52;;;3.80;99.90;;;;;;5015168;28;20431;-77
2023/02/25 02:58:29;;;;;;;9.38;0.40;;;3.80;99.90;;;;;;5015049;28;20119;-77
2023/02/25 03:01:23;;;;;;;10.43;0.30;;;3.90;99.90;;;;;;5016803;28;20360;-77
2023/02/25 03:03:58;;;;;;;10.07;0.35;;;4.00;99.90;;;;;;5009320;28;20557;-77
2023/02/25 03:06:35;;;;;;;13.05;1.00;;;4.10;99.90;;;;;;5016786;28;20109;-77
2023/02/25 03:09:10;;;;;;;12.00;0.13;;;4.10;99.90;;;;;;5015453;28;20525;-77
2023/02/25 03:11:36;;;;;;;17.05;1.88;;;4.10;99.90;;;;;;5014916;28;20030;-77
2023/02/25 03:14:02;;;;;;;9.77;0.35;;;4.30;99.90;;;;;;5015961;28;20446;-77
2023/02/25 03:16:41;;;;;;;14.55;0.65;;;4.30;99.90;;;;;;5014675;28;20033;-77
2023/02/25 03:19:14;;;;;;;12.93;1.08;;;4.30;99.90;;;;;;5014734;28;20026;-77
2023/02/25 03:21:48;;;;;;;6.95;0.20;;;4.40;99.90;;;;;;5014798;28;20474;-77
2023/02/25 03:24:21;;;;;;;14.32;1.00;;;4.50;99.90;;;;;;5015918;28;20029;-77
2023/02/25 03:26:49;;;;;;;9.35;0.47;;;4.50;99.90;;;;;;5014643;28;20026;-77
2023/02/25 03:29:18;;;;;;;10.10;0.20;;;4.50;99.90;;;;;;5014494;28;20040;-76
2023/02/25 03:31:55;;;;;;;14.35;0.70;;;4.50;99.90;;;;;;5014389;28;20025;-77
2023/02/25 03:34:34;;;;;;;19.60;2.50;;;4.50;99.90;;;;;;5014836;28;20545;-76
2023/02/25 03:37:04;;;;;;;11.57;1.80;;;4.40;99.90;;;;;;5015510;28;20030;-77
2023/02/25 03:39:39;;;;;;;17.85;1.40;;;4.50;99.90;;;;;;5015943;28;20104;-77
2023/02/25 03:42:10;;;;;;;13.27;0.93;;;4.30;99.90;;;;;;5014271;28;20032;-77
2023/02/25 03:44:42;;;;;;;14.25;0.88;;;4.20;99.90;;;;;;5015462;28;20102;-77
2023/02/25 03:47:09;;;;;;;11.27;0.75;;;4.10;99.90;;;;;;5015085;28;20034;-77
2023/02/25 03:49:46;;;;;;;7.25;0.00;;;4.00;99.90;;;;;;5015407;28;20104;-77
2023/02/25 03:52:17;;;;;;;12.35;0.90;;;3.90;99.90;;;;;;5015393;28;20397;-77
2023/02/25 03:54:54;;;;;;;9.43;0.47;;;3.90;99.90;;;;;;5013995;28;20048;-76
2023/02/25 03:57:25;;;;;;;7.90;0.52;;;4.10;99.90;;;;;;5015578;28;20060;-76
2023/02/25 03:59:55;;;;;;;12.30;0.93;;;3.90;99.90;;;;;;5015612;28;20022;-78
2023/02/25 04:02:32;;;;;;;13.63;0.65;;;3.90;99.90;;;;;;5013838;28;20112;-76
2023/02/25 04:04:57;;;;;;;16.65;0.85;;;3.90;99.90;;;;;;5014093;28;20105;-77
2023/02/25 04:07:23;;;;;;;14.02;0.50;;;3.80;99.90;;;;;;5013772;28;20056;-77
2023/02/25 04:09:49;;;;;;;12.93;0.30;;;3.90;99.90;;;;;;5013913;28;20057;-78
2023/02/25 04:12:15;;;;;;;11.93;0.52;;;3.80;99.90;;;;;;5014972;28;20026;-78
2023/02/25 04:14:40;;;;;;;13.45;1.48;;;3.80;99.90;;;;;;5013371;28;20033;-78
2023/02/25 04:17:06;;;;;;;9.20;0.82;;;3.90;99.90;;;;;;5014846;28;20053;-78
2023/02/25 04:19:32;;;;;;;17.15;0.60;;;4.00;99.90;;;;;;5013570;28;20033;-76
2023/02/25 04:21:59;;;;;;;6.13;0.52;;;4.00;99.90;;;;;;5014996;28;20044;-77
2023/02/25 04:24:25;;;;;;;10.40;0.95;;;4.00;99.90;;;;;;5013364;28;20018;-77
2023/02/25 04:26:57;;;;;;;16.90;1.70;;;4.00;99.90;;;;;;5015008;28;20454;-77
2023/02/25 04:29:24;;;;;;;11.75;1.08;;;4.00;99.90;;;;;;5013618;28;20392;-77
2023/02/25 04:31:49;;;;;;;8.45;0.20;;;4.10;99.90;;;;;;5013852;28;20033;-77
2023/02/25 04:34:15;;;;;;;13.38;0.70;;;4.10;99.90;;;;;;5015002;28;20029;-77
2023/02/25 04:36:43;;;;;;;12.60;1.00;;;4.20;99.90;;;;;;5014663;28;20136;-77
2023/02/25 04:39:10;;;;;;;12.88;0.38;;;4.10;99.90;;;;;;5013160;28;20105;-77
2023/02/25 04:41:36;;;;;;;8.88;0.65;;;4.20;99.90;;;;;;5014215;28;20448;-77
2023/02/25 04:44:03;;;;;;;18.00;2.03;;;4.10;99.90;;;;;;5013616;28;20021;-77
2023/02/25 04:46:29;;;;;;;10.55;0.43;;;4.10;99.90;;;;;;5013375;28;20030;-77
2023/02/25 04:48:55;;;;;;;10.35;0.43;;;4.10;99.90;;;;;;5012827;28;20014;-77
2023/02/25 04:51:21;;;;;;;9.13;0.47;;;4.10;99.90;;;;;;5012702;28;20495;-77
2023/02/25 04:53:46;;;;;;;17.38;0.52;;;4.00;99.90;;;;;;5012975;28;20096;-77
2023/02/25 04:56:12;;;;;;;6.50;0.93;;;4.00;99.90;;;;;;5014123;28;20029;-77
2023/02/25 04:58:38;;;;;;;9.80;0.63;;;4.00;99.90;;;;;;5012134;28;20033;-77
2023/02/25 05:01:06;;;;;;;8.85;0.15;;;3.90;99.90;;;;;;5012791;28;20037;-77
2023/02/25 05:03:32;;;;;;;12.32;0.65;;;3.90;99.90;;;;;;5013812;28;20022;-77
2023/02/25 05:05:58;;;;;;;11.43;1.35;;;3.80;99.90;;;;;;5013655;28;20076;-77
2023/02/25 05:08:24;;;;;;;10.75;0.85;;;3.80;99.90;;;;;;5012590;28;20033;-77
2023/02/25 05:10:50;;;;;;;8.13;1.15;;;3.80;99.90;;;;;;5013739;28;20026;-77
2023/02/25 05:13:17;;;;;;;6.93;0.17;;;3.70;99.90;;;;;;5012539;28;20400;-77
2023/02/25 05:15:43;;;;;;;10.32;0.57;;;3.70;99.90;;;;;;5012343;28;20025;-77
2023/02/25 05:18:09;;;;;;;13.73;1.08;;;3.70;99.90;;;;;;5012158;28;20119;-77
2023/02/25 05:20:45;;;;;;;19.95;1.50;;;3.70;99.90;;;;;;5013316;28;20050;-77
2023/02/25 05:23:12;;;;;;;11.93;0.32;;;3.70;99.90;;;;;;5013726;28;20044;-77
2023/02/25 05:25:41;;;;;;;8.85;0.57;;;3.70;99.90;;;;;;5014149;28;20014;-77
2023/02/25 05:28:11;;;;;;;8.77;0.52;;;3.80;99.90;;;;;;5013680;28;20034;-77
2023/02/25 05:30:38;;;;;;;16.10;0.90;;;3.70;99.90;;;;;;5012426;28;20044;-77
2023/02/25 05:33:04;;;;;;;17.90;1.27;;;3.80;99.90;;;;;;5012258;28;20018;-77
2023/02/25 05:35:33;;;;;;;10.25;0.77;;;3.70;99.90;;;;;;5013615;28;20057;-78
2023/02/25 05:37:59;;;;;;;;;;;3.70;99.90;;;;;;5014584;28;20026;-77
2023/02/25 05:40:26;;;;;;;7.85;0.68;;;3.70;99.90;;;;;;5013571;28;19910;-77
2023/02/25 05:42:51;;;;;;;3.53;0.13;;;3.70;99.90;;;;;;5011952;28;20496;-78
2023/02/25 05:45:17;;;;;;;10.23;0.50;;;3.60;99.90;;;;;;5013382;28;20044;-77
2023/02/25 05:47:43;;;;;;;10.15;0.43;;;3.50;99.90;;;;;;5012311;28;20022;-77
2023/02/25 05:50:09;;;;;;;5.43;0.55;;;3.50;99.90;;;;;;5012185;28;20448;-77
2023/02/25 05:52:35;;;;;;;11.40;0.90;;;3.50;99.90;;;;;;5013312;28;20026;-78
2023/02/25 05:55:02;;;;;;;12.38;2.35;;;3.50;99.90;;;;;;5013022;28;20037;-78
2023/02/25 05:57:28;;;;;;;19.33;1.70;;;3.40;99.90;;;;;;5011681;28;20018;-77
2023/02/25 05:59:54;;;;;;;13.77;1.20;;;3.50;99.90;;;;;;5012191;28;20018;-77
2023/02/25 06:02:20;;;;;;;9.30;0.30;;;3.40;99.90;;;;;;5011825;28;20385;-76
2023/02/25 06:04:46;;;;;;;9.88;0.95;;;3.50;99.90;;;;;;5011470;28;20026;-76
2023/02/25 06:07:13;;;;;;;14.45;1.70;;;3.50;99.90;;;;;;5011841;28;20026;-76
2023/02/25 06:09:39;;;;;;;11.77;0.85;;;3.50;99.90;;;;;;5015942;28;20030;-76
2023/02/25 06:12:05;;;;;;;14.02;0.55;;;3.80;99.90;;;;;;5017259;28;20041;-76
2023/02/25 06:14:30;;;;;;;15.02;0.55;;;3.50;99.90;;;;;;5017249;28;20052;-77
2023/02/25 06:16:56;;;;;;;10.98;0.40;;;3.50;99.90;;;;;;5015844;28;20025;-77
2023/02/25 06:19:25;;;;;;;17.85;0.77;;;3.60;99.90;;;;;;5017185;28;20049;-76
2023/02/25 06:21:53;;;;;;;;;;;3.60;99.90;;;;;;5017420;28;20045;-77
2023/02/25 06:24:19;;;;;;;13.07;0.30;;;3.60;99.90;;;;;;5015934;28;19905;-76
2023/02/25 06:26:45;;;;;;;11.35;0.60;;;3.50;99.90;;;;;;5015769;28;20064;-76
2023/02/25 06:29:11;;;;;;;16.55;1.08;;;3.50;99.90;;;;;;5015634;28;20045;-76
2023/02/25 06:31:37;;;;;;;14.35;0.73;;;3.50;99.90;;;;;;5016933;28;20084;-77
2023/02/25 06:34:04;;;;;;;9.38;0.35;;;3.40;99.90;;;;;;5015603;28;20460;-77
2023/02/25 06:36:31;;;;;;;17.63;1.05;;;3.40;99.90;;;;;;5016840;28;20366;-76
2023/02/25 06:38:57;;;;;;;8.57;1.00;;;3.40;99.90;;;;;;5015509;28;20025;-76
2023/02/25 06:41:24;;;;;;;15.85;1.35;;;3.40;99.90;;;;;;5014936;28;20048;-77
2023/02/25 06:43:51;;;;;;;12.23;0.98;;;3.50;99.90;;;;;;5016560;28;20101;-76
2023/02/25 06:46:19;;;;;;;9.95;0.30;;;3.30;99.90;;;;;;5015208;28;20124;-76
2023/02/25 06:48:45;;;;;;;11.45;0.40;;;3.30;99.90;;;;;;5016401;28;20397;-76
2023/02/25 06:51:11;;;;;;;10.38;0.50;;;3.30;99.90;;;;;;5014745;28;20026;-75
2023/02/25 06:53:38;;;;;;;6.25;0.20;;;3.30;99.90;;;;;;5015096;28;20057;-75
2023/02/25 06:56:05;;;;;;;14.35;0.85;;;3.40;99.90;;;;;;5016319;28;20029;-75
2023/02/25 06:58:33;;;;;;;12.57;0.47;;;3.40;99.90;;;;;;5016114;28;20238;-76
2023/02/25 07:01:00;;;;;;;19.75;0.32;;;3.40;99.90;;;;;;5014827;28;20072;-75
2023/02/25 07:03:25;;;;;;;13.13;0.88;;;3.50;99.90;;;;;;5014790;28;20022;-77
2023/02/25 07:05:52;;;;;;;11.25;0.98;;;3.50;99.90;;;;;;5016005;28;20134;-76
2023/02/25 07:08:17;;;;;;;14.43;0.63;;;3.50;99.90;;;;;;5016198;28;20049;-76
2023/02/25 07:10:43;;;;;;;7.18;0.17;;;3.70;99.90;;;;;;5014424;28;20470;-76
2023/02/25 07:13:09;;;;;;;13.02;0.40;;;3.70;99.90;;;;;;5014078;28;20018;-76
2023/02/25 07:15:35;;;;;;;20.08;0.47;;;3.80;99.90;;;;;;5014690;28;20022;-75
2023/02/25 07:18:01;;;;;;;11.13;0.43;;;3.80;99.90;;;;;;5016372;28;20049;-75
2023/02/25 07:20:28;;;;;;;17.80;1.02;;;3.80;99.90;;;;;;5015244;28;20144;-76
2023/02/25 07:22:54;;;;;;;10.40;0.45;;;3.90;99.90;;;;;;5015695;28;20441;-76
2023/02/25 07:25:20;;;;;;;13.32;0.35;;;3.80;99.90;;;;;;5015869;28;20034;-75
2023/02/25 07:27:45;;;;;;;14.57;1.23;;;4.40;99.90;;;;;;5015936;28;20529;-76
2023/02/25 07:30:12;;;;;;;4.97;0.63;;;4.00;99.90;;;;;;5015706;28;20025;-76
2023/02/25 07:32:37;;;;;;;8.80;0.68;;;4.00;99.90;;;;;;5014236;28;20040;-75
2023/02/25 07:35:03;;;;;;;8.35;1.27;;;4.00;99.90;;;;;;5014175;28;20452;-76
2023/02/25 07:37:30;;;;;;;8.77;0.85;;;4.00;99.90;;;;;;5015603;28;20040;-76
2023/02/25 07:39:59;;;;;;;8.57;1.17;;;4.00;99.90;;;;;;5014627;28;20022;-76
2023/02/25 07:42:28;;;;;;;9.93;0.10;;;4.00;99.90;;;;;;5014031;28;20037;-76
2023/02/25 07:44:54;;;;;;;;;;;4.00;99.90;;;;;;5016391;28;20416;-76
2023/02/25 07:47:20;;;;;;;13.95;0.77;;;4.00;99.90;;;;;;5014058;28;19999;-76
2023/02/25 07:49:46;;;;;;;11.80;0.68;;;4.10;99.90;;;;;;5014288;28;20026;-76
2023/02/25 07:52:12;;;;;;;13.50;0.93;;;4.20;99.90;;;;;;5013739;28;20037;-76
2023/02/25 07:54:37;;;;;;;12.90;0.88;;;4.30;99.90;;;;;;5015280;28;20025;-76
2023/02/25 07:57:03;;;;;;;19.95;1.23;;;4.30;99.90;;;;;;5013822;28;20104;-76
2023/02/25 07:59:31;;;;;;;14.90;0.47;;;4.30;99.90;;;;;;5014098;28;20106;-76
2023/02/25 08:01:56;;;;;;;14.70;0.73;;;4.40;99.90;;;;;;5013707;28;20108;-76
2023/02/25 08:04:23;;;;;;;10.43;0.80;;;4.50;99.90;;;;;;5014748;28;20097;-76
2023/02/25 08:06:50;;;;;;;13.93;1.10;;;4.50;99.90;;;;;;5013720;28;20473;-76
2023/02/25 08:09:16;;;;;;;10.95;1.40;;;5.10;99.90;;;;;;5013831;28;20022;-76
2023/02/25 08:11:43;;;;;;;9.32;0.30;;;4.60;99.90;;;;;;5014969;28;20026;-75
2023/02/25 08:14:09;;;;;;;14.30;0.17;;;4.60;99.90;;;;;;5013896;28;20033;-76
2023/02/25 08:16:36;;;;;;;12.80;0.52;;;4.70;99.90;;;;;;5014984;28;20116;-75
2023/02/25 08:19:03;;;;;;;20.40;0.70;;;4.70;99.90;;;;;;5015007;28;20024;-75
2023/02/25 08:21:30;;;;;;;8.43;0.10;;;4.70;99.90;;;;;;5014726;28;20037;-75
2023/02/25 08:23:56;;;;;;;6.90;0.10;;;4.70;99.90;;;;;;5012844;28;20021;-75
2023/02/25 08:26:24;;;;;;;4.45;0.00;;;4.70;99.90;;;;;;5013414;28;20030;-76
2023/02/25 08:28:50;;;;;;;10.13;0.53;;;5.30;99.90;;;;;;5014625;28;20022;-75
2023/02/25 08:31:16;;;;;;;9.40;0.05;;;4.70;99.90;;;;;;5013221;28;20168;-75
2023/02/25 08:33:48;;;;;;;9.38;0.85;;;4.70;99.90;;;;;;5014561;28;20393;-76
2023/02/25 08:36:20;;;;;;;13.23;1.15;;;4.80;99.90;;;;;;5014590;28;20018;-75
2023/02/25 08:38:45;;;;;;;5.18;0.52;;;4.80;99.90;;;;;;5014852;28;20026;-75
2023/02/25 08:41:11;;;;;;;10.00;0.30;;;4.90;99.90;;;;;;5012849;28;20029;-75
2023/02/25 08:43:38;;;;;;;6.85;0.17;;;5.00;99.90;;;;;;5014211;28;20030;-75
2023/02/25 08:46:05;;;;;;;10.30;0.47;;;5.00;99.90;;;;;;5014277;28;20029;-76
2023/02/25 08:48:31;;;;;;;5.63;0.20;;;5.00;99.90;;;;;;5014366;28;20022;-76
2023/02/25 08:51:07;;;;;;;7.85;0.22;;;5.10;99.90;;;;;;5013036;28;20438;-76
2023/02/25 08:53:34;;;;;;;11.93;0.70;;;5.10;99.90;;;;;;5014080;28;20113;-76
2023/02/25 08:56:09;;;;;;;5.88;0.10;;;5.20;99.90;;;;;;5013848;28;20026;-75
2023/02/25 08:58:36;;;;;;;5.28;0.10;;;5.30;99.90;;;;;;5014390;28;20026;-75
2023/02/25 09:01:07;;;;;;;6.25;0.65;;;5.30;99.90;;;;;;5014024;28;20489;-75
2023/02/25 09:03:34;;;;;;;6.28;0.40;;;5.40;99.90;;;;;;5013988;28;20024;-76
2023/02/25 09:05:59;;;;;;;5.55;0.10;;;5.50;99.90;;;;;;5014024;28;20022;-76
2023/02/25 09:08:27;;;;;;;7.07;0.95;;;5.50;99.90;;;;;;5013957;28;20017;-76
2023/02/25 09:10:52;;;;;;;9.45;0.52;;;5.60;99.90;;;;;;5013866;28;20025;-76
2023/02/25 09:13:18;;;;;;;4.32;0.38;;;5.60;99.90;;;;;;5013744;28;20094;-76
2023/02/25 09:15:45;;;;;;;6.70;0.40;;;5.60;99.90;;;;;;5013306;28;20342;-76
2023/02/25 09:18:10;;;;;;;2.42;0.03;;;5.60;99.90;;;;;;5013690;28;20029;-76
2023/02/25 09:20:36;;;;;;;7.03;0.00;;;5.60;99.90;;;;;;5013777;28;20022;-76
2023/02/25 09:23:01;;;;;;;3.42;0.35;;;5.50;99.90;;;;;;5013752;28;20110;-76
2023/02/25 09:25:29;;;;;;;4.93;0.00;;;5.40;99.90;;;;;;5012760;28;20083;-76
2023/02/25 09:27:55;;;;;;;3.47;0.15;;;5.40;99.90;;;;;;5013762;28;20026;-76
2023/02/25 09:30:20;;;;;;;3.15;0.00;;;5.30;99.90;;;;;;5013765;28;20084;-76
2023/02/25 09:32:46;;;;;;;4.20;0.20;;;5.30;99.90;;;;;;5012155;28;20386;-76
2023/02/25 09:35:12;;;;;;;7.43;0.25;;;5.30;99.90;;;;;;5012291;28;20022;-76
2023/02/25 09:37:37;;;;;;;9.48;0.10;;;5.20;99.90;;;;;;5012260;28;20057;-76
2023/02/25 09:40:05;;;;;;;8.50;0.00;;;5.30;99.90;;;;;;5012084;28;20049;-76
2023/02/25 09:43:07;;;;;;;4.95;0.00;;;5.50;99.90;;;;;;5012024;28;20022;-76
2023/02/25 09:45:35;;;;;;;5.60;0.30;;;5.90;99.90;;;;;;5018449;28;20045;-76
2023/02/25 09:48:09;;;;;;;4.65;0.10;;;6.20;99.90;;;;;;5019818;28;20038;-76
2023/02/25 09:50:40;;;;;;;5.80;0.10;;;6.30;99.90;;;;;;5018719;28;20108;-76
2023/02/25 09:53:21;;;;;;;5.90;0.00;;;6.20;99.90;;;;;;5020398;28;20053;-76
2023/02/25 09:55:49;;;;;;;1.17;0.10;;;5.60;99.90;;;;;;5020410;28;20026;-76
2023/02/25 09:58:35;;;;;;;2.30;0.00;;;5.10;99.90;;;;;;5018564;28;20018;-76
2023/02/25 10:01:10;;;;;;;3.83;0.38;;;4.80;99.90;;;;;;5019958;28;20022;-76
2023/02/25 10:04:20;;;;;;;5.57;0.10;;;4.70;99.90;;;;;;5018152;28;20370;-76
2023/02/25 10:06:48;;;;;;;5.93;0.00;;;4.70;99.90;;;;;;4962522;28;20037;-76
2023/02/25 10:09:19;;;;;;;6.25;0.00;;;4.80;99.90;;;;;;4962612;28;20022;-75
2023/02/25 10:12:24;;;;;;;0.90;0.00;;;4.90;99.90;;;;;;4992096;28;20073;-76
2023/02/25 10:14:59;;;;;;;4.03;0.20;;;5.20;99.90;;;;;;5019878;28;20022;-76
2023/02/25 10:17:45;;;;;;;1.15;0.00;;;5.40;99.90;;;;;;5020284;28;20393;-76
2023/02/25 10:20:37;;;;;;;4.68;0.00;;;5.60;99.90;;;;;;5018475;28;20103;-76
2023/02/25 10:23:12;;;;;;;0.20;0.00;;;5.80;99.90;;;;;;5018510;28;20026;-76
2023/02/25 10:25:52;;;;;;;2.47;0.20;;;6.00;99.90;;;;;;5018966;28;20537;-76
2023/02/25 10:28:19;;;;;;;11.80;0.80;;;6.20;99.90;;;;;;5018563;28;20029;-76
2023/02/25 10:31:05;;;;;;;4.22;0.25;;;6.40;99.90;;;;;;5020276;28;20021;-76
2023/02/25 10:33:35;;;;;;;3.40;0.00;;;6.60;99.90;;;;;;5020438;28;20040;-76
2023/02/25 10:36:26;;;;;;;2.78;0.00;;;6.60;99.90;;;;;;5018806;28;20026;-76
2023/02/25 10:38:53;;;;;;;3.17;0.00;;;6.70;99.90;;;;;;5017657;28;20041;-76
2023/02/25 10:41:21;;;;;;;3.60;0.00;;;6.60;99.90;;;;;;5017733;28;20109;-76
2023/02/25 10:43:50;;;;;;;0.68;0.00;;;6.60;99.90;;;;;;5019434;28;20034;-76
2023/02/25 10:46:24;;;;;;;;;;;6.60;99.90;;;;;;5019773;28;20025;-76
2023/02/25 10:48:58;;;;;;;2.85;0.43;;;6.70;99.90;;;;;;5017927;28;20395;-76
2023/02/25 10:51:27;;;;;;;3.65;0.20;;;6.70;99.90;;;;;;5018380;28;20034;-76
2023/02/25 10:54:05;;;;;;;4.13;0.00;;;6.70;99.90;;;;;;5019216;28;20048;-76
2023/02/25 10:56:41;;;;;;;4.68;0.00;;;7.10;99.90;;;;;;5015356;28;20440;-76
2023/02/25 10:59:20;;;;;;;2.88;0.22;;;7.10;99.90;;;;;;5016259;28;20068;-76
2023/02/25 11:01:47;;;;;;;3.65;0.03;;;7.30;99.90;;;;;;5014967;28;20032;-76
2023/02/25 11:04:19;;;;;;;0.77;0.00;;;7.50;99.90;;;;;;5016359;28;20062;-76
2023/02/25 11:06:45;;;;;;;3.92;0.00;;;7.30;99.90;;;;;;5014926;28;20024;-76
2023/02/25 11:09:19;;;;;;;1.17;0.00;;;7.10;99.90;;;;;;5014813;28;20022;-76
2023/02/25 11:11:52;;;;;;;5.65;0.00;;;7.00;99.90;;;;;;5014458;28;20235;-76
2023/02/25 11:14:26;;;;;;;4.10;0.43;;;7.00;99.90;;;;;;5016341;28;20026;-76
2023/02/25 11:17:01;;;;;;;2.30;0.00;;;6.90;99.90;;;;;;5015272;28;20025;-76
2023/02/25 11:19:41;;;;;;;1.80;0.00;;;6.80;99.90;;;;;;5015986;28;20034;-76
2023/02/25 11:22:28;;;;;;;4.22;0.17;;;6.90;99.90;;;;;;5015647;28;20030;-76
2023/02/25 11:24:59;;;;;;;3.80;0.00;;;7.00;99.90;;;;;;5015548;28;20029;-76
2023/02/25 11:27:36;;;;;;;3.88;0.20;;;7.00;99.90;;;;;;5015758;28;20033;-76
2023/02/25 11:30:33;;;;;;;0.28;0.10;;;7.10;99.90;;;;;;5015585;28;20180;-76
2023/02/25 11:33:07;;;;;;;3.00;0.10;;;7.10;99.90;;;;;;5013750;28;20100;-76
2023/02/25 11:35:37;;;;;;;2.78;0.10;;;7.20;99.90;;;;;;5015660;28;20083;-76
2023/02/25 11:38:14;;;;;;;2.65;0.25;;;7.40;99.90;;;;;;5014192;28;20030;-76
2023/02/25 11:40:43;;;;;;;4.72;0.30;;;7.50;99.90;;;;;;5013959;28;20157;-76
2023/02/25 11:43:18;;;;;;;3.78;0.00;;;7.60;99.90;;;;;;5013684;28;20030;-76
2023/02/25 11:46:07;;;;;;;2.42;0.15;;;7.90;99.90;;;;;;5015539;28;20087;-76
2023/02/25 11:48:39;;;;;;;;;;;7.80;99.90;;;;;;5015936;28;20030;-76
2023/02/25 11:51:11;;;;;;;6.13;0.00;;;8.00;99.90;;;;;;5015374;28;20449;-76
2023/02/25 11:54:16;;;;;;;1.75;0.00;;;8.40;99.90;;;;;;5015213;28;20026;-76
2023/02/25 11:56:48;;;;;;;3.40;0.00;;;8.50;99.90;;;;;;5013939;28;20412;-76
2023/02/25 11:59:37;;;;;;;3.40;0.20;;;8.40;99.90;;;;;;5014102;28;20025;-76
2023/02/25 12:02:22;;;;;;;;;;;8.40;99.90;;;;;;5015638;28;20042;-76
2023/02/25 12:05:03;;;;;;;8.57;0.00;;;8.30;99.90;;;;;;5013754;28;19952;-76
2023/02/25 12:07:40;;;;;;;7.13;0.15;;;8.30;99.90;;;;;;5013682;28;20030;-76
2023/02/25 12:10:09;;;;;;;2.28;0.00;;;8.40;99.90;;;;;;5015119;28;20018;-76
2023/02/25 12:13:16;;;;;;;7.80;0.63;;;8.60;99.90;;;;;;5015337;28;20551;-76
2023/02/25 12:16:01;;;;;;;3.40;0.20;;;8.90;99.90;;;;;;5013729;28;20477;-76
2023/02/25 12:18:51;;;;;;;5.18;0.63;;;8.90;99.90;;;;;;5013369;28;20052;-76
2023/02/25 12:21:28;;;;;;;1.45;0.00;;;8.70;99.90;;;;;;5014856;28;20061;-76
2023/02/25 12:24:30;;;;;;;3.10;0.05;;;8.60;99.90;;;;;;5013713;28;20037;-76
2023/02/25 12:27:30;;;;;;;2.40;0.10;;;8.60;99.90;;;;;;4962446;28;20070;-76
2023/02/25 12:29:59;;;;;;;3.70;0.77;;;8.90;99.90;;;;;;5014717;28;20030;-76
2023/02/25 12:32:43;;;;;;;3.95;0.30;;;9.20;99.90;;;;;;5014518;28;20072;-76
2023/02/25 12:35:33;;;;;;;2.55;0.17;;;9.20;99.90;;;;;;5014543;28;20508;-76
2023/02/25 12:38:36;;;;;;;8.45;0.20;;;9.00;99.90;;;;;;5013364;28;20034;-76
2023/02/25 12:41:25;;;;;;;3.08;0.25;;;8.60;99.90;;;;;;5014176;28;20029;-76
2023/02/25 12:44:12;;;;;;;3.28;0.00;;;8.30;99.90;;;;;;5014936;28;20036;-76
2023/02/25 12:46:38;;;;;;;6.10;0.47;;;8.30;99.90;;;;;;5012976;28;20028;-76
2023/02/25 12:49:07;;;;;;;4.03;0.00;;;8.10;99.90;;;;;;5012577;28;20113;-76
2023/02/25 12:51:51;;;;;;;5.13;0.38;;;7.90;99.90;;;;;;5014020;28;20050;-76
2023/02/25 12:54:51;;;;;;;5.68;0.43;;;7.90;99.90;;;;;;5014775;28;20022;-76
2023/02/25 12:57:28;;;;;;;4.38;0.45;;;8.20;99.90;;;;;;5014502;28;20022;-76
2023/02/25 13:00:27;;;;;;;3.17;0.50;;;8.50;99.90;;;;;;5013224;28;20030;-76
2023/02/25 13:03:06;;;;;;;2.97;0.00;;;9.00;99.90;;;;;;5013001;28;20117;-76
2023/02/25 13:05:44;;;;;;;1.08;0.00;;;9.40;99.90;;;;;;5012834;28;20030;-76
2023/02/25 13:08:39;;;;;;;3.90;0.32;;;9.50;99.60;;;;;;5013791;28;20508;-76
2023/02/25 13:11:23;;;;;;;3.03;0.10;;;9.40;97.70;;;;;;5014189;28;20501;-76
2023/02/25 13:14:20;;;;;;;3.80;0.40;;;8.90;94.10;;;;;;5013868;28;20401;-76
2023/02/25 13:17:12;;;;;;;5.68;0.10;;;8.70;94.40;;;;;;5012680;28;20072;-76
2023/02/25 13:20:19;;;;;;;2.90;0.00;;;8.90;93.70;;;;;;5011801;28;20054;-76